sensor_id;sensor_type;location;lat;lon;timestamp;P1;durP1;ratioP1;P2;durP2;ratioP2
3523;SDS011;1776;53.330;11.498;2022-09-09T00:00:27;32.47;;;19.93;;
3523;SDS011;1776;53.330;11.498;2022-09-09T00:05:41;31.50;;;20.03;;
3523;SDS011;1776;53.330;11.498;2022-09-09T00:08:17;29.83;;;20.57;;
3523;SDS011;1776;53.330;11.498;2022-09-09T00:10:45;27.60;;;20.27;;
3523;SDS011;1776;53.330;11.498;2022-09-09T00:16:32;28.27;;;20.53;;
3523;SDS011;1776;53.330;11.498;2022-09-09T00:19:08;32.50;;;20.87;;
3523;SDS011;1776;53.330;11.498;2022-09-09T00:24:43;33.07;;;20.23;;
3523;SDS011;1776;53.330;11.498;2022-09-09T00:28:01;33.07;;;22.53;;
3523;SDS011;1776;53.330;11.498;2022-09-09T00:30:16;25.63;;;19.77;;
3523;SDS011;1776;53.330;11.498;2022-09-09T00:32:50;26.87;;;19.53;;
3523;SDS011;1776;53.330;11.498;2022-09-09T00:37:50;23.43;;;17.33;;
3523;SDS011;1776;53.330;11.498;2022-09-09T00:40:41;30.67;;;19.17;;
3523;SDS011;1776;53.330;11.498;2022-09-09T00:51:28;21.27;;;14.23;;
3523;SDS011;1776;53.330;11.498;2022-09-09T00:57:07;22.03;;;16.40;;
3523;SDS011;1776;53.330;11.498;2022-09-09T01:02:34;22.50;;;14.63;;
3523;SDS011;1776;53.330;11.498;2022-09-09T01:05:20;22.87;;;16.27;;
3523;SDS011;1776;53.330;11.498;2022-09-09T01:07:52;32.40;;;16.33;;
3523;SDS011;1776;53.330;11.498;2022-09-09T01:10:22;23.87;;;16.83;;
3523;SDS011;1776;53.330;11.498;2022-09-09T01:13:11;24.23;;;16.67;;
3523;SDS011;1776;53.330;11.498;2022-09-09T01:15:44;31.63;;;15.60;;
3523;SDS011;1776;53.330;11.498;2022-09-09T01:18:12;28.33;;;16.50;;
3523;SDS011;1776;53.330;11.498;2022-09-09T01:20:54;23.73;;;15.93;;
3523;SDS011;1776;53.330;11.498;2022-09-09T01:26:28;27.23;;;17.70;;
3523;SDS011;1776;53.330;11.498;2022-09-09T01:28:58;26.80;;;18.57;;
3523;SDS011;1776;53.330;11.498;2022-09-09T01:31:31;32.07;;;17.73;;
3523;SDS011;1776;53.330;11.498;2022-09-09T01:34:01;32.30;;;18.97;;
3523;SDS011;1776;53.330;11.498;2022-09-09T01:36:35;25.60;;;17.97;;
3523;SDS011;1776;53.330;11.498;2022-09-09T01:39:16;27.70;;;16.53;;
3523;SDS011;1776;53.330;11.498;2022-09-09T01:41:42;36.30;;;17.20;;
3523;SDS011;1776;53.330;11.498;2022-09-09T01:44:07;23.20;;;16.00;;
3523;SDS011;1776;53.330;11.498;2022-09-09T01:46:34;39.60;;;19.17;;
3523;SDS011;1776;53.330;11.498;2022-09-09T01:48:59;30.50;;;15.90;;
3523;SDS011;1776;53.330;11.498;2022-09-09T01:51:26;28.17;;;18.70;;
3523;SDS011;1776;53.330;11.498;2022-09-09T01:53:52;32.83;;;18.53;;
3523;SDS011;1776;53.330;11.498;2022-09-09T01:58:50;22.83;;;15.87;;
3523;SDS011;1776;53.330;11.498;2022-09-09T02:01:29;22.93;;;16.37;;
3523;SDS011;1776;53.330;11.498;2022-09-09T02:04:19;24.30;;;14.57;;
3523;SDS011;1776;53.330;11.498;2022-09-09T02:06:58;27.97;;;16.17;;
3523;SDS011;1776;53.330;11.498;2022-09-09T02:09:25;25.97;;;16.20;;
3523;SDS011;1776;53.330;11.498;2022-09-09T02:11:57;28.03;;;17.53;;
3523;SDS011;1776;53.330;11.498;2022-09-09T02:14:30;26.00;;;17.70;;
3523;SDS011;1776;53.330;11.498;2022-09-09T02:17:05;28.93;;;16.00;;
3523;SDS011;1776;53.330;11.498;2022-09-09T02:19:42;26.40;;;15.90;;
3523;SDS011;1776;53.330;11.498;2022-09-09T02:22:13;31.97;;;18.73;;
3523;SDS011;1776;53.330;11.498;2022-09-09T02:24:42;25.10;;;17.20;;
3523;SDS011;1776;53.330;11.498;2022-09-09T02:27:09;29.37;;;17.83;;
3523;SDS011;1776;53.330;11.498;2022-09-09T02:29:38;24.10;;;16.47;;
3523;SDS011;1776;53.330;11.498;2022-09-09T02:32:11;30.37;;;18.17;;
3523;SDS011;1776;53.330;11.498;2022-09-09T02:34:44;27.77;;;16.80;;
3523;SDS011;1776;53.330;11.498;2022-09-09T02:37:15;26.57;;;16.47;;
3523;SDS011;1776;53.330;11.498;2022-09-09T02:39:44;20.50;;;14.50;;
3523;SDS011;1776;53.330;11.498;2022-09-09T02:42:10;20.77;;;14.50;;
3523;SDS011;1776;53.330;11.498;2022-09-09T02:44:35;22.70;;;16.00;;
3523;SDS011;1776;53.330;11.498;2022-09-09T02:50:06;28.80;;;17.13;;
3523;SDS011;1776;53.330;11.498;2022-09-09T02:52:40;23.03;;;15.63;;
3523;SDS011;1776;53.330;11.498;2022-09-09T02:58:05;21.80;;;15.23;;
3523;SDS011;1776;53.330;11.498;2022-09-09T03:00:36;19.00;;;13.83;;
3523;SDS011;1776;53.330;11.498;2022-09-09T03:03:03;18.50;;;14.00;;
3523;SDS011;1776;53.330;11.498;2022-09-09T03:05:29;20.80;;;14.37;;
3523;SDS011;1776;53.330;11.498;2022-09-09T03:07:54;18.30;;;13.70;;
3523;SDS011;1776;53.330;11.498;2022-09-09T03:10:19;19.67;;;14.50;;
3523;SDS011;1776;53.330;11.498;2022-09-09T03:12:45;18.30;;;12.80;;
3523;SDS011;1776;53.330;11.498;2022-09-09T03:15:10;25.40;;;15.33;;
3523;SDS011;1776;53.330;11.498;2022-09-09T03:17:36;26.67;;;15.70;;
3523;SDS011;1776;53.330;11.498;2022-09-09T03:20:04;24.30;;;14.67;;
3523;SDS011;1776;53.330;11.498;2022-09-09T03:22:30;22.77;;;13.80;;
3523;SDS011;1776;53.330;11.498;2022-09-09T03:24:55;18.10;;;12.60;;
3523;SDS011;1776;53.330;11.498;2022-09-09T03:27:22;15.33;;;11.63;;
3523;SDS011;1776;53.330;11.498;2022-09-09T03:29:47;23.17;;;15.00;;
3523;SDS011;1776;53.330;11.498;2022-09-09T03:32:16;17.53;;;13.40;;
3523;SDS011;1776;53.330;11.498;2022-09-09T03:34:42;20.30;;;13.47;;
3523;SDS011;1776;53.330;11.498;2022-09-09T03:37:08;16.60;;;12.23;;
3523;SDS011;1776;53.330;11.498;2022-09-09T03:39:33;22.67;;;14.60;;
3523;SDS011;1776;53.330;11.498;2022-09-09T03:41:58;23.83;;;14.87;;
3523;SDS011;1776;53.330;11.498;2022-09-09T03:44:24;23.33;;;14.30;;
3523;SDS011;1776;53.330;11.498;2022-09-09T03:46:49;22.70;;;15.30;;
3523;SDS011;1776;53.330;11.498;2022-09-09T03:49:14;22.70;;;14.90;;
3523;SDS011;1776;53.330;11.498;2022-09-09T03:51:40;24.33;;;14.03;;
3523;SDS011;1776;53.330;11.498;2022-09-09T03:54:05;28.03;;;14.53;;
3523;SDS011;1776;53.330;11.498;2022-09-09T03:56:33;23.10;;;13.30;;
3523;SDS011;1776;53.330;11.498;2022-09-09T03:58:59;18.20;;;12.20;;
3523;SDS011;1776;53.330;11.498;2022-09-09T04:01:24;22.53;;;14.27;;
3523;SDS011;1776;53.330;11.498;2022-09-09T04:03:49;23.73;;;14.00;;
3523;SDS011;1776;53.330;11.498;2022-09-09T04:06:15;18.10;;;12.73;;
3523;SDS011;1776;53.330;11.498;2022-09-09T04:08:46;19.70;;;13.10;;
3523;SDS011;1776;53.330;11.498;2022-09-09T04:11:13;17.10;;;13.03;;
3523;SDS011;1776;53.330;11.498;2022-09-09T04:13:39;14.80;;;10.90;;
3523;SDS011;1776;53.330;11.498;2022-09-09T04:16:04;15.23;;;11.77;;
3523;SDS011;1776;53.330;11.498;2022-09-09T04:18:30;15.67;;;10.77;;
3523;SDS011;1776;53.330;11.498;2022-09-09T04:20:56;28.40;;;15.17;;
3523;SDS011;1776;53.330;11.498;2022-09-09T04:23:22;19.87;;;14.10;;
3523;SDS011;1776;53.330;11.498;2022-09-09T04:25:52;17.77;;;11.80;;
3523;SDS011;1776;53.330;11.498;2022-09-09T04:28:19;18.57;;;13.00;;
3523;SDS011;1776;53.330;11.498;2022-09-09T04:30:46;19.07;;;12.30;;
3523;SDS011;1776;53.330;11.498;2022-09-09T04:33:12;13.87;;;10.70;;
3523;SDS011;1776;53.330;11.498;2022-09-09T04:35:38;13.57;;;10.10;;
3523;SDS011;1776;53.330;11.498;2022-09-09T04:38:05;16.27;;;10.73;;
3523;SDS011;1776;53.330;11.498;2022-09-09T04:40:34;14.10;;;10.47;;
3523;SDS011;1776;53.330;11.498;2022-09-09T04:43:00;13.83;;;10.50;;
3523;SDS011;1776;53.330;11.498;2022-09-09T04:45:27;12.30;;;9.50;;
3523;SDS011;1776;53.330;11.498;2022-09-09T04:47:53;14.63;;;10.73;;
3523;SDS011;1776;53.330;11.498;2022-09-09T04:50:19;13.23;;;10.47;;
3523;SDS011;1776;53.330;11.498;2022-09-09T04:52:44;18.83;;;11.53;;
3523;SDS011;1776;53.330;11.498;2022-09-09T04:55:10;15.10;;;10.40;;
3523;SDS011;1776;53.330;11.498;2022-09-09T04:57:35;13.23;;;10.17;;
3523;SDS011;1776;53.330;11.498;2022-09-09T05:00:01;13.40;;;9.30;;
3523;SDS011;1776;53.330;11.498;2022-09-09T05:02:26;12.20;;;9.50;;
3523;SDS011;1776;53.330;11.498;2022-09-09T05:04:52;11.00;;;9.10;;
3523;SDS011;1776;53.330;11.498;2022-09-09T05:07:17;11.17;;;8.93;;
3523;SDS011;1776;53.330;11.498;2022-09-09T05:09:42;11.77;;;9.20;;
3523;SDS011;1776;53.330;11.498;2022-09-09T05:12:08;11.63;;;9.20;;
3523;SDS011;1776;53.330;11.498;2022-09-09T05:14:33;12.23;;;9.13;;
3523;SDS011;1776;53.330;11.498;2022-09-09T05:17:01;12.53;;;10.00;;
3523;SDS011;1776;53.330;11.498;2022-09-09T05:19:26;12.97;;;8.40;;
3523;SDS011;1776;53.330;11.498;2022-09-09T05:21:52;13.10;;;9.20;;
3523;SDS011;1776;53.330;11.498;2022-09-09T05:24:17;10.73;;;8.50;;
3523;SDS011;1776;53.330;11.498;2022-09-09T05:26:42;10.30;;;7.83;;
3523;SDS011;1776;53.330;11.498;2022-09-09T05:29:08;10.60;;;8.20;;
3523;SDS011;1776;53.330;11.498;2022-09-09T05:31:33;10.60;;;8.37;;
3523;SDS011;1776;53.330;11.498;2022-09-09T05:33:58;21.10;;;8.90;;
3523;SDS011;1776;53.330;11.498;2022-09-09T05:36:24;10.87;;;8.20;;
3523;SDS011;1776;53.330;11.498;2022-09-09T05:38:49;8.80;;;7.60;;
3523;SDS011;1776;53.330;11.498;2022-09-09T05:41:15;10.47;;;8.30;;
3523;SDS011;1776;53.330;11.498;2022-09-09T05:43:42;9.50;;;8.50;;
3523;SDS011;1776;53.330;11.498;2022-09-09T05:46:12;10.00;;;7.67;;
3523;SDS011;1776;53.330;11.498;2022-09-09T05:48:40;9.13;;;7.80;;
3523;SDS011;1776;53.330;11.498;2022-09-09T05:51:09;10.70;;;8.57;;
3523;SDS011;1776;53.330;11.498;2022-09-09T05:53:40;11.07;;;8.43;;
3523;SDS011;1776;53.330;11.498;2022-09-09T05:56:07;7.60;;;6.80;;
3523;SDS011;1776;53.330;11.498;2022-09-09T05:58:39;7.77;;;6.47;;
3523;SDS011;1776;53.330;11.498;2022-09-09T06:01:05;11.30;;;8.30;;
3523;SDS011;1776;53.330;11.498;2022-09-09T06:03:34;8.97;;;7.60;;
3523;SDS011;1776;53.330;11.498;2022-09-09T06:06:00;7.87;;;6.53;;
3523;SDS011;1776;53.330;11.498;2022-09-09T06:08:27;10.23;;;8.23;;
3523;SDS011;1776;53.330;11.498;2022-09-09T06:10:52;9.00;;;6.80;;
3523;SDS011;1776;53.330;11.498;2022-09-09T06:13:18;10.00;;;7.33;;
3523;SDS011;1776;53.330;11.498;2022-09-09T06:15:50;9.83;;;6.90;;
3523;SDS011;1776;53.330;11.498;2022-09-09T06:18:17;10.50;;;8.50;;
3523;SDS011;1776;53.330;11.498;2022-09-09T06:20:52;9.00;;;7.90;;
3523;SDS011;1776;53.330;11.498;2022-09-09T06:23:29;10.47;;;8.80;;
3523;SDS011;1776;53.330;11.498;2022-09-09T06:26:05;8.23;;;7.10;;
3523;SDS011;1776;53.330;11.498;2022-09-09T06:28:34;10.43;;;8.27;;
3523;SDS011;1776;53.330;11.498;2022-09-09T06:31:00;9.40;;;8.40;;
3523;SDS011;1776;53.330;11.498;2022-09-09T06:33:30;9.43;;;8.20;;
3523;SDS011;1776;53.330;11.498;2022-09-09T06:35:57;10.73;;;8.90;;
3523;SDS011;1776;53.330;11.498;2022-09-09T06:38:23;7.43;;;6.60;;
3523;SDS011;1776;53.330;11.498;2022-09-09T06:40:52;10.67;;;7.93;;
3523;SDS011;1776;53.330;11.498;2022-09-09T06:43:19;8.03;;;7.27;;
3523;SDS011;1776;53.330;11.498;2022-09-09T06:45:52;9.70;;;7.67;;
3523;SDS011;1776;53.330;11.498;2022-09-09T06:48:21;9.13;;;7.43;;
3523;SDS011;1776;53.330;11.498;2022-09-09T06:50:47;9.20;;;7.93;;
3523;SDS011;1776;53.330;11.498;2022-09-09T06:53:12;9.03;;;7.67;;
3523;SDS011;1776;53.330;11.498;2022-09-09T06:55:41;11.87;;;8.37;;
3523;SDS011;1776;53.330;11.498;2022-09-09T06:58:09;10.03;;;8.30;;
3523;SDS011;1776;53.330;11.498;2022-09-09T07:00:34;7.60;;;6.70;;
3523;SDS011;1776;53.330;11.498;2022-09-09T07:03:02;8.90;;;7.67;;
3523;SDS011;1776;53.330;11.498;2022-09-09T07:05:28;10.00;;;7.13;;
3523;SDS011;1776;53.330;11.498;2022-09-09T07:07:53;10.00;;;7.93;;
3523;SDS011;1776;53.330;11.498;2022-09-09T07:10:18;9.40;;;8.13;;
3523;SDS011;1776;53.330;11.498;2022-09-09T07:12:43;11.73;;;8.60;;
3523;SDS011;1776;53.330;11.498;2022-09-09T07:15:09;7.40;;;6.47;;
3523;SDS011;1776;53.330;11.498;2022-09-09T07:17:34;10.97;;;7.87;;
3523;SDS011;1776;53.330;11.498;2022-09-09T07:20:00;9.47;;;7.27;;
3523;SDS011;1776;53.330;11.498;2022-09-09T07:22:27;9.20;;;7.47;;
3523;SDS011;1776;53.330;11.498;2022-09-09T07:24:53;12.07;;;7.93;;
3523;SDS011;1776;53.330;11.498;2022-09-09T07:27:18;9.83;;;7.27;;
3523;SDS011;1776;53.330;11.498;2022-09-09T07:29:45;9.03;;;7.10;;
3523;SDS011;1776;53.330;11.498;2022-09-09T07:32:11;8.67;;;6.20;;
3523;SDS011;1776;53.330;11.498;2022-09-09T07:34:37;7.70;;;6.13;;
3523;SDS011;1776;53.330;11.498;2022-09-09T07:37:02;9.13;;;6.00;;
3523;SDS011;1776;53.330;11.498;2022-09-09T07:39:28;10.10;;;6.30;;
3523;SDS011;1776;53.330;11.498;2022-09-09T07:41:53;8.63;;;6.93;;
3523;SDS011;1776;53.330;11.498;2022-09-09T07:44:22;8.67;;;5.57;;
3523;SDS011;1776;53.330;11.498;2022-09-09T07:46:52;10.43;;;6.67;;
3523;SDS011;1776;53.330;11.498;2022-09-09T07:49:17;7.27;;;6.13;;
3523;SDS011;1776;53.330;11.498;2022-09-09T07:51:44;5.23;;;4.73;;
3523;SDS011;1776;53.330;11.498;2022-09-09T07:54:12;6.33;;;5.70;;
3523;SDS011;1776;53.330;11.498;2022-09-09T07:56:39;7.80;;;5.47;;
3523;SDS011;1776;53.330;11.498;2022-09-09T07:59:05;6.87;;;5.43;;
3523;SDS011;1776;53.330;11.498;2022-09-09T08:01:35;5.97;;;5.40;;
3523;SDS011;1776;53.330;11.498;2022-09-09T08:04:05;6.10;;;5.37;;
3523;SDS011;1776;53.330;11.498;2022-09-09T08:06:36;6.57;;;5.20;;
3523;SDS011;1776;53.330;11.498;2022-09-09T08:09:06;8.13;;;5.97;;
3523;SDS011;1776;53.330;11.498;2022-09-09T08:11:32;6.80;;;5.70;;
3523;SDS011;1776;53.330;11.498;2022-09-09T08:13:58;5.20;;;4.70;;
3523;SDS011;1776;53.330;11.498;2022-09-09T08:16:24;6.50;;;4.90;;
3523;SDS011;1776;53.330;11.498;2022-09-09T08:18:52;8.27;;;4.30;;
3523;SDS011;1776;53.330;11.498;2022-09-09T08:21:20;5.70;;;5.03;;
3523;SDS011;1776;53.330;11.498;2022-09-09T08:23:47;9.33;;;5.03;;
3523;SDS011;1776;53.330;11.498;2022-09-09T08:26:16;7.50;;;5.07;;
3523;SDS011;1776;53.330;11.498;2022-09-09T08:28:47;5.90;;;4.40;;
3523;SDS011;1776;53.330;11.498;2022-09-09T08:31:16;6.97;;;4.47;;
3523;SDS011;1776;53.330;11.498;2022-09-09T08:33:43;9.90;;;4.23;;
3523;SDS011;1776;53.330;11.498;2022-09-09T08:36:11;12.40;;;4.70;;
3523;SDS011;1776;53.330;11.498;2022-09-09T08:38:40;4.37;;;3.50;;
3523;SDS011;1776;53.330;11.498;2022-09-09T08:41:22;5.07;;;4.37;;
3523;SDS011;1776;53.330;11.498;2022-09-09T08:43:50;7.47;;;3.80;;
3523;SDS011;1776;53.330;11.498;2022-09-09T08:50:19;7.63;;;4.80;;
3523;SDS011;1776;53.330;11.498;2022-09-09T08:52:51;7.80;;;3.50;;
3523;SDS011;1776;53.330;11.498;2022-09-09T08:55:24;7.33;;;4.33;;
3523;SDS011;1776;53.330;11.498;2022-09-09T08:57:54;3.53;;;3.20;;
3523;SDS011;1776;53.330;11.498;2022-09-09T09:00:22;4.07;;;3.43;;
3523;SDS011;1776;53.330;11.498;2022-09-09T09:02:57;5.83;;;3.20;;
3523;SDS011;1776;53.330;11.498;2022-09-09T09:05:33;6.07;;;3.23;;
3523;SDS011;1776;53.330;11.498;2022-09-09T09:08:15;12.73;;;3.20;;
3523;SDS011;1776;53.330;11.498;2022-09-09T09:10:51;5.27;;;3.03;;
3523;SDS011;1776;53.330;11.498;2022-09-09T09:16:06;5.60;;;3.17;;
3523;SDS011;1776;53.330;11.498;2022-09-09T09:18:38;6.80;;;2.53;;
3523;SDS011;1776;53.330;11.498;2022-09-09T09:21:10;4.77;;;2.70;;
3523;SDS011;1776;53.330;11.498;2022-09-09T09:23:45;7.23;;;2.97;;
3523;SDS011;1776;53.330;11.498;2022-09-09T09:26:34;3.23;;;2.47;;
3523;SDS011;1776;53.330;11.498;2022-09-09T09:29:03;3.73;;;2.17;;
3523;SDS011;1776;53.330;11.498;2022-09-09T09:31:37;3.13;;;2.67;;
3523;SDS011;1776;53.330;11.498;2022-09-09T09:34:03;3.63;;;2.20;;
3523;SDS011;1776;53.330;11.498;2022-09-09T09:36:37;6.80;;;2.40;;
3523;SDS011;1776;53.330;11.498;2022-09-09T09:39:07;2.40;;;2.20;;
3523;SDS011;1776;53.330;11.498;2022-09-09T09:41:35;7.83;;;2.30;;
3523;SDS011;1776;53.330;11.498;2022-09-09T09:44:04;3.80;;;2.07;;
3523;SDS011;1776;53.330;11.498;2022-09-09T09:46:30;3.00;;;2.10;;
3523;SDS011;1776;53.330;11.498;2022-09-09T09:48:57;2.20;;;2.10;;
3523;SDS011;1776;53.330;11.498;2022-09-09T09:51:24;10.50;;;2.37;;
3523;SDS011;1776;53.330;11.498;2022-09-09T09:53:51;6.10;;;2.47;;
3523;SDS011;1776;53.330;11.498;2022-09-09T09:56:25;3.63;;;1.57;;
3523;SDS011;1776;53.330;11.498;2022-09-09T09:58:53;3.10;;;2.07;;
3523;SDS011;1776;53.330;11.498;2022-09-09T10:01:29;3.40;;;1.90;;
3523;SDS011;1776;53.330;11.498;2022-09-09T10:03:59;4.03;;;2.60;;
3523;SDS011;1776;53.330;11.498;2022-09-09T10:06:38;3.63;;;2.23;;
3523;SDS011;1776;53.330;11.498;2022-09-09T10:09:20;3.17;;;1.70;;
3523;SDS011;1776;53.330;11.498;2022-09-09T10:15:00;5.37;;;1.90;;
3523;SDS011;1776;53.330;11.498;2022-09-09T10:17:36;3.33;;;1.77;;
3523;SDS011;1776;53.330;11.498;2022-09-09T10:20:30;4.73;;;1.70;;
3523;SDS011;1776;53.330;11.498;2022-09-09T10:34:36;1.53;;;1.40;;
3523;SDS011;1776;53.330;11.498;2022-09-09T10:37:13;2.13;;;1.93;;
3523;SDS011;1776;53.330;11.498;2022-09-09T10:39:54;4.40;;;1.80;;
3523;SDS011;1776;53.330;11.498;2022-09-09T10:42:43;3.47;;;2.10;;
3523;SDS011;1776;53.330;11.498;2022-09-09T10:45:29;3.30;;;1.77;;
3523;SDS011;1776;53.330;11.498;2022-09-09T10:50:49;2.50;;;1.63;;
3523;SDS011;1776;53.330;11.498;2022-09-09T10:56:44;3.83;;;1.37;;
3523;SDS011;1776;53.330;11.498;2022-09-09T10:59:20;2.97;;;1.57;;
3523;SDS011;1776;53.330;11.498;2022-09-09T11:01:53;2.13;;;1.77;;
3523;SDS011;1776;53.330;11.498;2022-09-09T11:04:25;2.23;;;1.80;;
3523;SDS011;1776;53.330;11.498;2022-09-09T11:06:57;3.10;;;1.50;;
3523;SDS011;1776;53.330;11.498;2022-09-09T11:09:30;2.90;;;1.87;;
3523;SDS011;1776;53.330;11.498;2022-09-09T11:12:01;4.23;;;1.70;;
3523;SDS011;1776;53.330;11.498;2022-09-09T11:17:09;2.30;;;1.63;;
3523;SDS011;1776;53.330;11.498;2022-09-09T11:19:39;5.40;;;2.00;;
3523;SDS011;1776;53.330;11.498;2022-09-09T11:27:24;2.40;;;1.40;;
3523;SDS011;1776;53.330;11.498;2022-09-09T11:38:55;2.63;;;1.63;;
3523;SDS011;1776;53.330;11.498;2022-09-09T11:41:16;5.43;;;1.73;;
3523;SDS011;1776;53.330;11.498;2022-09-09T11:43:46;3.20;;;1.60;;
3523;SDS011;1776;53.330;11.498;2022-09-09T11:46:16;2.67;;;2.03;;
3523;SDS011;1776;53.330;11.498;2022-09-09T11:48:45;4.80;;;2.23;;
3523;SDS011;1776;53.330;11.498;2022-09-09T11:51:29;3.83;;;2.87;;
3523;SDS011;1776;53.330;11.498;2022-09-09T11:59:06;6.13;;;2.00;;
3523;SDS011;1776;53.330;11.498;2022-09-09T12:01:49;8.20;;;2.47;;
3523;SDS011;1776;53.330;11.498;2022-09-09T12:06:53;3.03;;;2.63;;
3523;SDS011;1776;53.330;11.498;2022-09-09T12:17:45;4.50;;;2.40;;
3523;SDS011;1776;53.330;11.498;2022-09-09T12:20:22;2.87;;;2.43;;
3523;SDS011;1776;53.330;11.498;2022-09-09T12:26:06;2.73;;;1.63;;
3523;SDS011;1776;53.330;11.498;2022-09-09T12:31:44;4.20;;;2.33;;
3523;SDS011;1776;53.330;11.498;2022-09-09T12:34:17;6.00;;;2.07;;
3523;SDS011;1776;53.330;11.498;2022-09-09T12:37:11;3.40;;;1.90;;
3523;SDS011;1776;53.330;11.498;2022-09-09T12:39:48;1.33;;;1.20;;
3523;SDS011;1776;53.330;11.498;2022-09-09T12:42:22;3.97;;;1.50;;
3523;SDS011;1776;53.330;11.498;2022-09-09T12:44:52;2.13;;;1.50;;
3523;SDS011;1776;53.330;11.498;2022-09-09T12:47:19;2.67;;;1.47;;
3523;SDS011;1776;53.330;11.498;2022-09-09T12:49:47;4.03;;;1.97;;
3523;SDS011;1776;53.330;11.498;2022-09-09T12:52:26;2.07;;;1.60;;
3523;SDS011;1776;53.330;11.498;2022-09-09T12:54:55;2.83;;;1.83;;
3523;SDS011;1776;53.330;11.498;2022-09-09T12:57:22;4.23;;;1.60;;
3523;SDS011;1776;53.330;11.498;2022-09-09T12:59:50;4.20;;;2.10;;
3523;SDS011;1776;53.330;11.498;2022-09-09T13:04:48;3.70;;;1.80;;
3523;SDS011;1776;53.330;11.498;2022-09-09T13:07:15;1.67;;;1.40;;
3523;SDS011;1776;53.330;11.498;2022-09-09T13:09:41;3.20;;;1.70;;
3523;SDS011;1776;53.330;11.498;2022-09-09T13:12:10;2.73;;;1.47;;
3523;SDS011;1776;53.330;11.498;2022-09-09T13:14:39;2.50;;;1.77;;
3523;SDS011;1776;53.330;11.498;2022-09-09T13:17:22;3.57;;;1.73;;
3523;SDS011;1776;53.330;11.498;2022-09-09T13:19:49;3.27;;;1.80;;
3523;SDS011;1776;53.330;11.498;2022-09-09T13:22:29;2.17;;;1.90;;
3523;SDS011;1776;53.330;11.498;2022-09-09T13:24:58;3.10;;;1.47;;
3523;SDS011;1776;53.330;11.498;2022-09-09T13:27:55;2.13;;;1.83;;
3523;SDS011;1776;53.330;11.498;2022-09-09T13:35:45;3.67;;;1.80;;
3523;SDS011;1776;53.330;11.498;2022-09-09T13:38:14;3.30;;;2.07;;
3523;SDS011;1776;53.330;11.498;2022-09-09T13:40:40;2.07;;;1.50;;
3523;SDS011;1776;53.330;11.498;2022-09-09T13:43:20;2.30;;;2.00;;
3523;SDS011;1776;53.330;11.498;2022-09-09T13:45:54;2.50;;;1.70;;
3523;SDS011;1776;53.330;11.498;2022-09-09T13:48:24;6.50;;;2.33;;
3523;SDS011;1776;53.330;11.498;2022-09-09T13:50:57;3.70;;;1.60;;
3523;SDS011;1776;53.330;11.498;2022-09-09T13:53:29;6.10;;;2.00;;
3523;SDS011;1776;53.330;11.498;2022-09-09T13:55:55;2.80;;;1.80;;
3523;SDS011;1776;53.330;11.498;2022-09-09T13:58:21;4.00;;;1.53;;
3523;SDS011;1776;53.330;11.498;2022-09-09T14:00:47;4.83;;;2.00;;
3523;SDS011;1776;53.330;11.498;2022-09-09T14:03:13;4.20;;;1.90;;
3523;SDS011;1776;53.330;11.498;2022-09-09T14:05:38;4.73;;;2.03;;
3523;SDS011;1776;53.330;11.498;2022-09-09T14:08:04;3.13;;;1.83;;
3523;SDS011;1776;53.330;11.498;2022-09-09T14:10:31;4.47;;;4.07;;
3523;SDS011;1776;53.330;11.498;2022-09-09T14:12:56;5.53;;;2.70;;
3523;SDS011;1776;53.330;11.498;2022-09-09T14:15:22;8.03;;;3.23;;
3523;SDS011;1776;53.330;11.498;2022-09-09T14:17:47;4.27;;;2.63;;
3523;SDS011;1776;53.330;11.498;2022-09-09T14:20:13;5.60;;;2.13;;
3523;SDS011;1776;53.330;11.498;2022-09-09T14:22:40;2.47;;;2.23;;
3523;SDS011;1776;53.330;11.498;2022-09-09T14:25:06;5.03;;;1.77;;
3523;SDS011;1776;53.330;11.498;2022-09-09T14:27:32;5.30;;;2.00;;
3523;SDS011;1776;53.330;11.498;2022-09-09T14:29:58;4.47;;;1.27;;
3523;SDS011;1776;53.330;11.498;2022-09-09T14:32:24;6.23;;;1.67;;
3523;SDS011;1776;53.330;11.498;2022-09-09T14:34:50;7.40;;;2.17;;
3523;SDS011;1776;53.330;11.498;2022-09-09T14:37:16;4.57;;;1.50;;
3523;SDS011;1776;53.330;11.498;2022-09-09T14:39:42;5.60;;;1.47;;
3523;SDS011;1776;53.330;11.498;2022-09-09T14:42:11;5.00;;;2.10;;
3523;SDS011;1776;53.330;11.498;2022-09-09T14:44:38;1.53;;;1.20;;
3523;SDS011;1776;53.330;11.498;2022-09-09T14:47:03;3.27;;;1.10;;
3523;SDS011;1776;53.330;11.498;2022-09-09T14:49:29;12.23;;;1.47;;
3523;SDS011;1776;53.330;11.498;2022-09-09T14:51:55;2.67;;;1.50;;
3523;SDS011;1776;53.330;11.498;2022-09-09T14:54:20;2.33;;;1.00;;
3523;SDS011;1776;53.330;11.498;2022-09-09T14:56:47;4.97;;;1.53;;
3523;SDS011;1776;53.330;11.498;2022-09-09T14:59:13;3.60;;;1.27;;
3523;SDS011;1776;53.330;11.498;2022-09-09T15:01:44;3.07;;;1.60;;
3523;SDS011;1776;53.330;11.498;2022-09-09T15:04:10;3.07;;;1.30;;
3523;SDS011;1776;53.330;11.498;2022-09-09T15:06:37;4.30;;;1.83;;
3523;SDS011;1776;53.330;11.498;2022-09-09T15:09:04;3.20;;;1.10;;
3523;SDS011;1776;53.330;11.498;2022-09-09T15:11:31;3.47;;;1.23;;
3523;SDS011;1776;53.330;11.498;2022-09-09T15:14:02;2.60;;;1.20;;
3523;SDS011;1776;53.330;11.498;2022-09-09T15:16:28;3.10;;;1.20;;
3523;SDS011;1776;53.330;11.498;2022-09-09T15:18:54;1.13;;;0.90;;
3523;SDS011;1776;53.330;11.498;2022-09-09T15:21:22;1.50;;;1.03;;
3523;SDS011;1776;53.330;11.498;2022-09-09T15:23:49;1.50;;;0.80;;
3523;SDS011;1776;53.330;11.498;2022-09-09T15:26:16;1.47;;;1.07;;
3523;SDS011;1776;53.330;11.498;2022-09-09T15:28:42;6.20;;;0.80;;
3523;SDS011;1776;53.330;11.498;2022-09-09T15:31:13;2.00;;;0.90;;
3523;SDS011;1776;53.330;11.498;2022-09-09T15:33:45;1.93;;;1.13;;
3523;SDS011;1776;53.330;11.498;2022-09-09T15:36:13;4.63;;;1.23;;
3523;SDS011;1776;53.330;11.498;2022-09-09T15:38:40;1.47;;;0.80;;
3523;SDS011;1776;53.330;11.498;2022-09-09T15:41:05;1.77;;;1.13;;
3523;SDS011;1776;53.330;11.498;2022-09-09T15:43:30;3.30;;;1.27;;
3523;SDS011;1776;53.330;11.498;2022-09-09T15:45:57;1.67;;;0.93;;
3523;SDS011;1776;53.330;11.498;2022-09-09T15:48:29;3.07;;;1.00;;
3523;SDS011;1776;53.330;11.498;2022-09-09T15:51:06;5.00;;;2.03;;
3523;SDS011;1776;53.330;11.498;2022-09-09T15:53:31;3.83;;;2.43;;
3523;SDS011;1776;53.330;11.498;2022-09-09T15:55:57;4.13;;;2.70;;
3523;SDS011;1776;53.330;11.498;2022-09-09T15:58:23;2.57;;;1.63;;
3523;SDS011;1776;53.330;11.498;2022-09-09T16:00:48;2.80;;;1.77;;
3523;SDS011;1776;53.330;11.498;2022-09-09T16:03:13;3.13;;;2.20;;
3523;SDS011;1776;53.330;11.498;2022-09-09T16:05:39;6.87;;;2.00;;
3523;SDS011;1776;53.330;11.498;2022-09-09T16:08:05;4.77;;;1.40;;
3523;SDS011;1776;53.330;11.498;2022-09-09T16:10:31;6.10;;;2.00;;
3523;SDS011;1776;53.330;11.498;2022-09-09T16:12:56;3.87;;;1.40;;
3523;SDS011;1776;53.330;11.498;2022-09-09T16:15:21;2.80;;;1.20;;
3523;SDS011;1776;53.330;11.498;2022-09-09T16:17:48;4.77;;;1.67;;
3523;SDS011;1776;53.330;11.498;2022-09-09T16:20:13;2.13;;;1.10;;
3523;SDS011;1776;53.330;11.498;2022-09-09T16:22:39;3.00;;;1.20;;
3523;SDS011;1776;53.330;11.498;2022-09-09T16:25:05;3.23;;;1.10;;
3523;SDS011;1776;53.330;11.498;2022-09-09T16:27:31;4.23;;;1.37;;
3523;SDS011;1776;53.330;11.498;2022-09-09T16:29:56;4.30;;;1.53;;
3523;SDS011;1776;53.330;11.498;2022-09-09T16:32:22;3.53;;;1.97;;
3523;SDS011;1776;53.330;11.498;2022-09-09T16:34:47;2.30;;;1.20;;
3523;SDS011;1776;53.330;11.498;2022-09-09T16:37:12;3.63;;;1.30;;
3523;SDS011;1776;53.330;11.498;2022-09-09T16:39:38;2.00;;;1.30;;
3523;SDS011;1776;53.330;11.498;2022-09-09T16:42:03;5.50;;;1.30;;
3523;SDS011;1776;53.330;11.498;2022-09-09T16:44:29;3.03;;;1.30;;
3523;SDS011;1776;53.330;11.498;2022-09-09T16:46:55;1.70;;;1.20;;
3523;SDS011;1776;53.330;11.498;2022-09-09T16:49:21;6.77;;;1.40;;
3523;SDS011;1776;53.330;11.498;2022-09-09T16:51:49;5.03;;;1.50;;
3523;SDS011;1776;53.330;11.498;2022-09-09T16:54:18;4.90;;;1.27;;
3523;SDS011;1776;53.330;11.498;2022-09-09T16:56:44;2.40;;;1.23;;